sensor_id;sensor_type;location;lat;lon;timestamp;P1;durP1;ratioP1;P2;durP2;ratioP2
58472;SDS011;44775;51.564;5.460;2022-11-20T00:01:38;31.95;;;18.65;;
58472;SDS011;44775;51.564;5.460;2022-11-20T00:04:03;29.70;;;18.95;;
58472;SDS011;44775;51.564;5.460;2022-11-20T00:06:29;29.50;;;18.35;;
58472;SDS011;44775;51.564;5.460;2022-11-20T00:08:56;31.33;;;17.15;;
58472;SDS011;44775;51.564;5.460;2022-11-20T00:11:23;31.17;;;17.80;;
58472;SDS011;44775;51.564;5.460;2022-11-20T00:13:51;33.22;;;18.52;;
58472;SDS011;44775;51.564;5.460;2022-11-20T00:16:19;30.90;;;18.95;;
58472;SDS011;44775;51.564;5.460;2022-11-20T00:18:46;30.77;;;19.13;;
58472;SDS011;44775;51.564;5.460;2022-11-20T00:21:13;30.85;;;18.42;;
58472;SDS011;44775;51.564;5.460;2022-11-20T00:23:43;32.22;;;18.55;;
58472;SDS011;44775;51.564;5.460;2022-11-20T00:26:10;29.65;;;17.88;;
58472;SDS011;44775;51.564;5.460;2022-11-20T00:28:37;33.40;;;18.67;;
58472;SDS011;44775;51.564;5.460;2022-11-20T00:31:12;29.55;;;18.25;;
58472;SDS011;44775;51.564;5.460;2022-11-20T00:33:40;33.03;;;18.67;;
58472;SDS011;44775;51.564;5.460;2022-11-20T00:36:07;32.03;;;18.13;;
58472;SDS011;44775;51.564;5.460;2022-11-20T00:38:34;29.63;;;18.30;;
58472;SDS011;44775;51.564;5.460;2022-11-20T00:41:00;31.00;;;19.45;;
58472;SDS011;44775;51.564;5.460;2022-11-20T00:43:28;32.95;;;18.30;;
58472;SDS011;44775;51.564;5.460;2022-11-20T00:45:57;30.83;;;18.63;;
58472;SDS011;44775;51.564;5.460;2022-11-20T00:48:26;31.85;;;19.27;;
58472;SDS011;44775;51.564;5.460;2022-11-20T00:50:52;31.35;;;18.25;;
58472;SDS011;44775;51.564;5.460;2022-11-20T00:53:18;31.02;;;19.05;;
58472;SDS011;44775;51.564;5.460;2022-11-20T00:55:52;33.90;;;20.15;;
58472;SDS011;44775;51.564;5.460;2022-11-20T00:58:29;31.63;;;18.52;;
58472;SDS011;44775;51.564;5.460;2022-11-20T01:01:08;33.05;;;19.15;;
58472;SDS011;44775;51.564;5.460;2022-11-20T01:03:41;30.50;;;18.55;;
58472;SDS011;44775;51.564;5.460;2022-11-20T01:06:11;31.02;;;18.90;;
58472;SDS011;44775;51.564;5.460;2022-11-20T01:08:36;33.47;;;19.15;;
58472;SDS011;44775;51.564;5.460;2022-11-20T01:11:07;29.40;;;18.23;;
58472;SDS011;44775;51.564;5.460;2022-11-20T01:13:34;32.20;;;19.00;;
58472;SDS011;44775;51.564;5.460;2022-11-20T01:16:04;32.95;;;19.33;;
58472;SDS011;44775;51.564;5.460;2022-11-20T01:18:41;32.40;;;18.92;;
58472;SDS011;44775;51.564;5.460;2022-11-20T01:21:08;33.95;;;19.42;;
58472;SDS011;44775;51.564;5.460;2022-11-20T01:23:37;32.40;;;19.50;;
58472;SDS011;44775;51.564;5.460;2022-11-20T01:26:05;32.20;;;19.38;;
58472;SDS011;44775;51.564;5.460;2022-11-20T01:28:31;32.80;;;19.30;;
58472;SDS011;44775;51.564;5.460;2022-11-20T01:30:57;33.72;;;20.10;;
58472;SDS011;44775;51.564;5.460;2022-11-20T01:33:23;32.67;;;19.20;;
58472;SDS011;44775;51.564;5.460;2022-11-20T01:35:49;32.55;;;18.83;;
58472;SDS011;44775;51.564;5.460;2022-11-20T01:38:15;33.70;;;19.05;;
58472;SDS011;44775;51.564;5.460;2022-11-20T01:40:41;34.00;;;19.65;;
58472;SDS011;44775;51.564;5.460;2022-11-20T01:43:27;31.83;;;19.65;;
58472;SDS011;44775;51.564;5.460;2022-11-20T01:48:25;31.45;;;18.80;;
58472;SDS011;44775;51.564;5.460;2022-11-20T01:50:58;32.97;;;18.45;;
58472;SDS011;44775;51.564;5.460;2022-11-20T01:53:27;34.33;;;19.15;;
58472;SDS011;44775;51.564;5.460;2022-11-20T01:55:57;34.08;;;20.23;;
58472;SDS011;44775;51.564;5.460;2022-11-20T01:58:27;35.53;;;19.80;;
58472;SDS011;44775;51.564;5.460;2022-11-20T02:00:58;37.80;;;20.58;;
58472;SDS011;44775;51.564;5.460;2022-11-20T02:03:23;34.03;;;20.23;;
58472;SDS011;44775;51.564;5.460;2022-11-20T02:05:57;35.47;;;21.23;;
58472;SDS011;44775;51.564;5.460;2022-11-20T02:08:30;35.13;;;20.25;;
58472;SDS011;44775;51.564;5.460;2022-11-20T02:10:57;33.65;;;19.20;;
58472;SDS011;44775;51.564;5.460;2022-11-20T02:13:22;37.08;;;20.30;;
58472;SDS011;44775;51.564;5.460;2022-11-20T02:16:08;33.58;;;18.90;;
58472;SDS011;44775;51.564;5.460;2022-11-20T02:18:55;31.27;;;18.67;;
58472;SDS011;44775;51.564;5.460;2022-11-20T02:21:36;32.38;;;18.45;;
58472;SDS011;44775;51.564;5.460;2022-11-20T02:24:12;33.92;;;19.75;;
58472;SDS011;44775;51.564;5.460;2022-11-20T02:26:47;32.58;;;19.63;;
58472;SDS011;44775;51.564;5.460;2022-11-20T02:29:17;33.97;;;19.50;;
58472;SDS011;44775;51.564;5.460;2022-11-20T02:31:48;31.50;;;18.77;;
58472;SDS011;44775;51.564;5.460;2022-11-20T02:34:14;34.80;;;19.70;;
58472;SDS011;44775;51.564;5.460;2022-11-20T02:36:39;38.22;;;19.98;;
58472;SDS011;44775;51.564;5.460;2022-11-20T02:39:07;35.92;;;20.70;;
58472;SDS011;44775;51.564;5.460;2022-11-20T02:41:35;37.75;;;21.02;;
58472;SDS011;44775;51.564;5.460;2022-11-20T02:44:02;35.85;;;18.38;;
58472;SDS011;44775;51.564;5.460;2022-11-20T02:46:29;31.30;;;18.33;;
58472;SDS011;44775;51.564;5.460;2022-11-20T02:48:54;32.97;;;19.08;;
58472;SDS011;44775;51.564;5.460;2022-11-20T02:51:20;32.75;;;18.48;;
58472;SDS011;44775;51.564;5.460;2022-11-20T02:53:45;32.38;;;18.65;;
58472;SDS011;44775;51.564;5.460;2022-11-20T02:56:11;35.58;;;19.85;;
58472;SDS011;44775;51.564;5.460;2022-11-20T02:58:37;33.53;;;19.50;;
58472;SDS011;44775;51.564;5.460;2022-11-20T03:01:02;31.10;;;18.10;;
58472;SDS011;44775;51.564;5.460;2022-11-20T03:03:28;35.03;;;20.38;;
58472;SDS011;44775;51.564;5.460;2022-11-20T03:05:53;38.38;;;20.70;;
58472;SDS011;44775;51.564;5.460;2022-11-20T03:08:19;33.05;;;19.40;;
58472;SDS011;44775;51.564;5.460;2022-11-20T03:10:44;34.05;;;20.25;;
58472;SDS011;44775;51.564;5.460;2022-11-20T03:13:10;33.15;;;20.02;;
58472;SDS011;44775;51.564;5.460;2022-11-20T03:15:36;31.30;;;19.80;;
58472;SDS011;44775;51.564;5.460;2022-11-20T03:18:02;34.88;;;19.88;;
58472;SDS011;44775;51.564;5.460;2022-11-20T03:20:27;37.97;;;20.42;;
58472;SDS011;44775;51.564;5.460;2022-11-20T03:22:53;34.60;;;19.98;;
58472;SDS011;44775;51.564;5.460;2022-11-20T03:25:20;36.72;;;20.35;;
58472;SDS011;44775;51.564;5.460;2022-11-20T03:27:45;34.13;;;19.23;;
58472;SDS011;44775;51.564;5.460;2022-11-20T03:30:11;33.45;;;19.50;;
58472;SDS011;44775;51.564;5.460;2022-11-20T03:32:37;33.33;;;19.33;;
58472;SDS011;44775;51.564;5.460;2022-11-20T03:35:02;34.63;;;19.90;;
58472;SDS011;44775;51.564;5.460;2022-11-20T03:37:28;33.28;;;19.75;;
58472;SDS011;44775;51.564;5.460;2022-11-20T03:39:53;34.13;;;20.40;;
58472;SDS011;44775;51.564;5.460;2022-11-20T03:42:18;33.53;;;20.75;;
58472;SDS011;44775;51.564;5.460;2022-11-20T03:45:03;33.42;;;19.73;;
58472;SDS011;44775;51.564;5.460;2022-11-20T03:47:29;36.15;;;20.05;;
58472;SDS011;44775;51.564;5.460;2022-11-20T03:49:54;35.13;;;20.30;;
58472;SDS011;44775;51.564;5.460;2022-11-20T03:52:20;34.72;;;19.52;;
58472;SDS011;44775;51.564;5.460;2022-11-20T03:54:45;35.65;;;19.85;;
58472;SDS011;44775;51.564;5.460;2022-11-20T03:57:10;35.10;;;19.73;;
58472;SDS011;44775;51.564;5.460;2022-11-20T03:59:36;33.28;;;19.63;;
58472;SDS011;44775;51.564;5.460;2022-11-20T04:02:01;32.88;;;18.55;;
58472;SDS011;44775;51.564;5.460;2022-11-20T04:04:27;33.10;;;19.27;;
58472;SDS011;44775;51.564;5.460;2022-11-20T04:06:52;35.70;;;19.98;;
58472;SDS011;44775;51.564;5.460;2022-11-20T04:09:18;36.28;;;20.63;;
58472;SDS011;44775;51.564;5.460;2022-11-20T04:11:43;35.22;;;20.27;;
58472;SDS011;44775;51.564;5.460;2022-11-20T04:14:13;33.22;;;18.95;;
58472;SDS011;44775;51.564;5.460;2022-11-20T04:16:39;33.63;;;20.30;;
58472;SDS011;44775;51.564;5.460;2022-11-20T04:19:06;34.53;;;20.20;;
58472;SDS011;44775;51.564;5.460;2022-11-20T04:21:35;34.28;;;19.48;;
58472;SDS011;44775;51.564;5.460;2022-11-20T04:24:00;32.67;;;20.25;;
58472;SDS011;44775;51.564;5.460;2022-11-20T04:26:26;37.08;;;20.90;;
58472;SDS011;44775;51.564;5.460;2022-11-20T04:28:53;38.20;;;21.60;;
58472;SDS011;44775;51.564;5.460;2022-11-20T04:31:20;36.35;;;22.13;;
58472;SDS011;44775;51.564;5.460;2022-11-20T04:33:47;36.90;;;21.33;;
58472;SDS011;44775;51.564;5.460;2022-11-20T04:36:17;34.28;;;21.23;;
58472;SDS011;44775;51.564;5.460;2022-11-20T04:38:44;35.97;;;20.15;;
58472;SDS011;44775;51.564;5.460;2022-11-20T04:41:19;35.20;;;19.65;;
58472;SDS011;44775;51.564;5.460;2022-11-20T04:43:46;36.35;;;20.83;;
58472;SDS011;44775;51.564;5.460;2022-11-20T04:46:13;35.20;;;20.63;;
58472;SDS011;44775;51.564;5.460;2022-11-20T04:48:39;34.10;;;20.73;;
58472;SDS011;44775;51.564;5.460;2022-11-20T04:51:05;34.72;;;20.60;;
58472;SDS011;44775;51.564;5.460;2022-11-20T04:53:31;34.08;;;19.92;;
58472;SDS011;44775;51.564;5.460;2022-11-20T04:56:00;36.45;;;20.98;;
58472;SDS011;44775;51.564;5.460;2022-11-20T04:58:30;34.38;;;20.67;;
58472;SDS011;44775;51.564;5.460;2022-11-20T05:01:02;33.80;;;20.50;;
58472;SDS011;44775;51.564;5.460;2022-11-20T05:03:29;33.65;;;20.42;;
58472;SDS011;44775;51.564;5.460;2022-11-20T05:05:55;36.33;;;21.15;;
58472;SDS011;44775;51.564;5.460;2022-11-20T05:08:20;33.05;;;19.42;;
58472;SDS011;44775;51.564;5.460;2022-11-20T05:10:45;32.92;;;20.50;;
58472;SDS011;44775;51.564;5.460;2022-11-20T05:13:11;35.00;;;21.05;;
58472;SDS011;44775;51.564;5.460;2022-11-20T05:15:36;34.05;;;20.60;;
58472;SDS011;44775;51.564;5.460;2022-11-20T05:18:02;35.33;;;21.13;;
58472;SDS011;44775;51.564;5.460;2022-11-20T05:20:27;35.72;;;21.60;;
58472;SDS011;44775;51.564;5.460;2022-11-20T05:22:56;34.83;;;21.33;;
58472;SDS011;44775;51.564;5.460;2022-11-20T05:25:21;35.78;;;20.98;;
58472;SDS011;44775;51.564;5.460;2022-11-20T05:27:47;35.13;;;21.30;;
58472;SDS011;44775;51.564;5.460;2022-11-20T05:30:12;35.95;;;19.58;;
58472;SDS011;44775;51.564;5.460;2022-11-20T05:32:38;34.13;;;20.27;;
58472;SDS011;44775;51.564;5.460;2022-11-20T05:35:04;34.42;;;20.13;;
58472;SDS011;44775;51.564;5.460;2022-11-20T05:37:29;34.00;;;20.38;;
58472;SDS011;44775;51.564;5.460;2022-11-20T05:39:55;33.70;;;20.23;;
58472;SDS011;44775;51.564;5.460;2022-11-20T05:42:20;33.28;;;20.17;;
58472;SDS011;44775;51.564;5.460;2022-11-20T05:44:55;36.55;;;21.73;;
58472;SDS011;44775;51.564;5.460;2022-11-20T05:47:21;36.83;;;21.25;;
58472;SDS011;44775;51.564;5.460;2022-11-20T05:49:46;35.33;;;20.77;;
58472;SDS011;44775;51.564;5.460;2022-11-20T05:52:12;34.63;;;20.45;;
58472;SDS011;44775;51.564;5.460;2022-11-20T05:54:37;32.60;;;19.17;;
58472;SDS011;44775;51.564;5.460;2022-11-20T05:57:03;35.88;;;20.48;;
58472;SDS011;44775;51.564;5.460;2022-11-20T05:59:28;33.72;;;20.25;;
58472;SDS011;44775;51.564;5.460;2022-11-20T06:01:54;33.00;;;20.33;;
58472;SDS011;44775;51.564;5.460;2022-11-20T06:04:19;32.95;;;20.33;;
58472;SDS011;44775;51.564;5.460;2022-11-20T06:06:45;32.63;;;19.75;;
58472;SDS011;44775;51.564;5.460;2022-11-20T06:09:10;33.47;;;20.60;;
58472;SDS011;44775;51.564;5.460;2022-11-20T06:11:35;34.88;;;20.75;;
58472;SDS011;44775;51.564;5.460;2022-11-20T06:14:01;36.28;;;21.10;;
58472;SDS011;44775;51.564;5.460;2022-11-20T06:16:26;32.38;;;20.77;;
58472;SDS011;44775;51.564;5.460;2022-11-20T06:18:52;32.38;;;21.35;;
58472;SDS011;44775;51.564;5.460;2022-11-20T06:21:18;37.05;;;20.67;;
58472;SDS011;44775;51.564;5.460;2022-11-20T06:23:45;32.53;;;20.13;;
58472;SDS011;44775;51.564;5.460;2022-11-20T06:26:12;35.65;;;21.70;;
58472;SDS011;44775;51.564;5.460;2022-11-20T06:28:40;35.67;;;21.38;;
58472;SDS011;44775;51.564;5.460;2022-11-20T06:31:06;34.00;;;19.48;;
58472;SDS011;44775;51.564;5.460;2022-11-20T06:33:32;31.67;;;20.10;;
58472;SDS011;44775;51.564;5.460;2022-11-20T06:35:59;35.67;;;21.67;;
58472;SDS011;44775;51.564;5.460;2022-11-20T06:38:25;32.88;;;19.52;;
58472;SDS011;44775;51.564;5.460;2022-11-20T06:40:52;32.90;;;19.98;;
58472;SDS011;44775;51.564;5.460;2022-11-20T06:43:17;35.95;;;20.52;;
58472;SDS011;44775;51.564;5.460;2022-11-20T06:45:43;35.13;;;20.35;;
58472;SDS011;44775;51.564;5.460;2022-11-20T06:48:08;37.83;;;20.30;;
58472;SDS011;44775;51.564;5.460;2022-11-20T06:50:36;34.78;;;20.73;;
58472;SDS011;44775;51.564;5.460;2022-11-20T06:53:02;35.55;;;21.63;;
58472;SDS011;44775;51.564;5.460;2022-11-20T06:55:29;36.15;;;21.20;;
58472;SDS011;44775;51.564;5.460;2022-11-20T06:57:55;37.38;;;20.73;;
58472;SDS011;44775;51.564;5.460;2022-11-20T07:00:21;37.22;;;21.45;;
58472;SDS011;44775;51.564;5.460;2022-11-20T07:02:46;34.63;;;20.60;;
58472;SDS011;44775;51.564;5.460;2022-11-20T07:05:11;34.50;;;19.15;;
58472;SDS011;44775;51.564;5.460;2022-11-20T07:07:37;32.63;;;20.13;;
58472;SDS011;44775;51.564;5.460;2022-11-20T07:10:02;32.58;;;20.30;;
58472;SDS011;44775;51.564;5.460;2022-11-20T07:12:29;35.22;;;21.70;;
58472;SDS011;44775;51.564;5.460;2022-11-20T07:14:54;34.92;;;21.15;;
58472;SDS011;44775;51.564;5.460;2022-11-20T07:17:20;32.72;;;20.17;;
58472;SDS011;44775;51.564;5.460;2022-11-20T07:19:45;36.05;;;19.98;;
58472;SDS011;44775;51.564;5.460;2022-11-20T07:22:11;36.90;;;20.90;;
58472;SDS011;44775;51.564;5.460;2022-11-20T07:24:36;33.45;;;20.73;;
58472;SDS011;44775;51.564;5.460;2022-11-20T07:27:01;35.25;;;20.63;;
58472;SDS011;44775;51.564;5.460;2022-11-20T07:29:27;36.60;;;21.48;;
58472;SDS011;44775;51.564;5.460;2022-11-20T07:31:52;33.15;;;19.58;;
58472;SDS011;44775;51.564;5.460;2022-11-20T07:34:18;34.00;;;20.80;;
58472;SDS011;44775;51.564;5.460;2022-11-20T07:36:44;36.00;;;21.25;;
58472;SDS011;44775;51.564;5.460;2022-11-20T07:39:10;35.92;;;19.88;;
58472;SDS011;44775;51.564;5.460;2022-11-20T07:41:35;34.15;;;20.77;;
58472;SDS011;44775;51.564;5.460;2022-11-20T07:44:01;32.63;;;20.27;;
58472;SDS011;44775;51.564;5.460;2022-11-20T07:46:26;34.33;;;21.35;;
58472;SDS011;44775;51.564;5.460;2022-11-20T07:48:52;32.85;;;20.40;;
58472;SDS011;44775;51.564;5.460;2022-11-20T07:51:17;33.00;;;20.30;;
58472;SDS011;44775;51.564;5.460;2022-11-20T07:53:42;32.45;;;19.92;;
58472;SDS011;44775;51.564;5.460;2022-11-20T07:56:08;32.80;;;19.95;;
58472;SDS011;44775;51.564;5.460;2022-11-20T07:58:33;35.50;;;19.40;;
58472;SDS011;44775;51.564;5.460;2022-11-20T08:01:03;33.22;;;19.08;;
58472;SDS011;44775;51.564;5.460;2022-11-20T08:03:30;34.38;;;20.65;;
58472;SDS011;44775;51.564;5.460;2022-11-20T08:05:58;33.90;;;21.08;;
58472;SDS011;44775;51.564;5.460;2022-11-20T08:08:25;31.23;;;20.02;;
58472;SDS011;44775;51.564;5.460;2022-11-20T08:10:51;34.70;;;21.67;;
58472;SDS011;44775;51.564;5.460;2022-11-20T08:13:16;33.15;;;20.10;;
58472;SDS011;44775;51.564;5.460;2022-11-20T08:16:00;34.40;;;21.33;;
58472;SDS011;44775;51.564;5.460;2022-11-20T08:18:26;33.90;;;21.02;;
58472;SDS011;44775;51.564;5.460;2022-11-20T08:20:51;32.15;;;19.88;;
58472;SDS011;44775;51.564;5.460;2022-11-20T08:23:17;32.28;;;20.15;;
58472;SDS011;44775;51.564;5.460;2022-11-20T08:25:42;35.63;;;20.33;;
58472;SDS011;44775;51.564;5.460;2022-11-20T08:28:08;36.42;;;21.70;;
58472;SDS011;44775;51.564;5.460;2022-11-20T08:30:35;31.85;;;20.48;;
58472;SDS011;44775;51.564;5.460;2022-11-20T08:33:08;34.85;;;21.75;;
58472;SDS011;44775;51.564;5.460;2022-11-20T08:35:34;36.40;;;21.52;;
58472;SDS011;44775;51.564;5.460;2022-11-20T08:38:01;32.47;;;21.42;;
58472;SDS011;44775;51.564;5.460;2022-11-20T08:40:27;33.92;;;21.35;;
58472;SDS011;44775;51.564;5.460;2022-11-20T08:42:53;33.28;;;20.98;;
58472;SDS011;44775;51.564;5.460;2022-11-20T08:45:18;32.90;;;20.13;;
58472;SDS011;44775;51.564;5.460;2022-11-20T08:47:45;33.58;;;20.63;;
58472;SDS011;44775;51.564;5.460;2022-11-20T08:50:12;31.00;;;20.80;;
58472;SDS011;44775;51.564;5.460;2022-11-20T08:52:38;32.35;;;20.13;;
58472;SDS011;44775;51.564;5.460;2022-11-20T08:55:04;34.85;;;21.17;;
58472;SDS011;44775;51.564;5.460;2022-11-20T08:57:34;33.13;;;20.30;;
58472;SDS011;44775;51.564;5.460;2022-11-20T09:00:00;33.80;;;21.08;;
58472;SDS011;44775;51.564;5.460;2022-11-20T09:02:25;31.00;;;20.85;;
58472;SDS011;44775;51.564;5.460;2022-11-20T09:04:51;34.95;;;21.48;;
58472;SDS011;44775;51.564;5.460;2022-11-20T09:07:18;30.80;;;20.52;;
58472;SDS011;44775;51.564;5.460;2022-11-20T09:09:43;31.77;;;21.30;;
58472;SDS011;44775;51.564;5.460;2022-11-20T09:12:09;30.27;;;18.02;;
58472;SDS011;44775;51.564;5.460;2022-11-20T09:14:34;31.98;;;21.42;;
58472;SDS011;44775;51.564;5.460;2022-11-20T09:17:00;34.03;;;20.20;;
58472;SDS011;44775;51.564;5.460;2022-11-20T09:19:25;33.72;;;21.13;;
58472;SDS011;44775;51.564;5.460;2022-11-20T09:21:51;30.88;;;20.10;;
58472;SDS011;44775;51.564;5.460;2022-11-20T09:24:16;32.10;;;21.17;;
58472;SDS011;44775;51.564;5.460;2022-11-20T09:26:42;30.95;;;20.25;;
58472;SDS011;44775;51.564;5.460;2022-11-20T09:29:08;34.10;;;21.88;;
58472;SDS011;44775;51.564;5.460;2022-11-20T09:31:33;33.08;;;21.77;;
58472;SDS011;44775;51.564;5.460;2022-11-20T09:33:59;32.50;;;20.73;;
58472;SDS011;44775;51.564;5.460;2022-11-20T09:36:24;34.28;;;22.77;;
58472;SDS011;44775;51.564;5.460;2022-11-20T09:38:50;33.28;;;21.65;;
58472;SDS011;44775;51.564;5.460;2022-11-20T09:52:25;38.00;;;24.10;;
58472;SDS011;44775;51.564;5.460;2022-11-20T09:54:54;40.45;;;23.67;;
58472;SDS011;44775;51.564;5.460;2022-11-20T09:57:21;40.20;;;24.30;;
58472;SDS011;44775;51.564;5.460;2022-11-20T09:59:50;42.53;;;24.40;;
58472;SDS011;44775;51.564;5.460;2022-11-20T10:04:51;43.17;;;24.77;;
58472;SDS011;44775;51.564;5.460;2022-11-20T10:07:30;44.50;;;24.13;;
58472;SDS011;44775;51.564;5.460;2022-11-20T10:10:04;46.38;;;21.98;;
58472;SDS011;44775;51.564;5.460;2022-11-20T10:12:49;45.78;;;24.02;;
58472;SDS011;44775;51.564;5.460;2022-11-20T10:15:34;42.13;;;22.77;;
58472;SDS011;44775;51.564;5.460;2022-11-20T10:20:49;47.03;;;22.95;;
58472;SDS011;44775;51.564;5.460;2022-11-20T10:26:17;52.78;;;24.88;;
58472;SDS011;44775;51.564;5.460;2022-11-20T10:28:57;51.67;;;23.75;;
58472;SDS011;44775;51.564;5.460;2022-11-20T10:31:44;54.28;;;26.50;;
58472;SDS011;44775;51.564;5.460;2022-11-20T10:34:31;52.70;;;25.75;;
58472;SDS011;44775;51.564;5.460;2022-11-20T10:37:16;52.10;;;26.42;;
58472;SDS011;44775;51.564;5.460;2022-11-20T10:47:54;52.42;;;24.15;;
58472;SDS011;44775;51.564;5.460;2022-11-20T10:50:30;54.05;;;25.73;;
58472;SDS011;44775;51.564;5.460;2022-11-20T10:52:59;56.08;;;25.85;;
58472;SDS011;44775;51.564;5.460;2022-11-20T10:58:39;58.75;;;26.92;;
58472;SDS011;44775;51.564;5.460;2022-11-20T11:01:16;60.28;;;27.90;;
58472;SDS011;44775;51.564;5.460;2022-11-20T11:03:48;60.67;;;28.95;;
58472;SDS011;44775;51.564;5.460;2022-11-20T11:06:28;58.33;;;23.63;;
58472;SDS011;44775;51.564;5.460;2022-11-20T11:09:04;59.28;;;25.85;;
58472;SDS011;44775;51.564;5.460;2022-11-20T11:11:37;62.72;;;27.88;;
58472;SDS011;44775;51.564;5.460;2022-11-20T11:14:07;60.35;;;28.40;;
58472;SDS011;44775;51.564;5.460;2022-11-20T11:16:35;57.85;;;27.58;;
58472;SDS011;44775;51.564;5.460;2022-11-20T11:19:07;56.25;;;26.70;;
58472;SDS011;44775;51.564;5.460;2022-11-20T11:21:37;57.28;;;27.45;;
58472;SDS011;44775;51.564;5.460;2022-11-20T11:24:14;56.25;;;25.73;;
58472;SDS011;44775;51.564;5.460;2022-11-20T11:27:03;62.05;;;28.63;;
58472;SDS011;44775;51.564;5.460;2022-11-20T11:29:37;58.47;;;25.48;;
58472;SDS011;44775;51.564;5.460;2022-11-20T11:32:06;64.38;;;29.05;;
58472;SDS011;44775;51.564;5.460;2022-11-20T11:34:34;65.80;;;29.33;;
58472;SDS011;44775;51.564;5.460;2022-11-20T11:37:00;67.20;;;30.58;;
58472;SDS011;44775;51.564;5.460;2022-11-20T11:39:28;66.38;;;29.30;;
58472;SDS011;44775;51.564;5.460;2022-11-20T11:41:56;60.75;;;28.73;;
58472;SDS011;44775;51.564;5.460;2022-11-20T11:44:33;74.05;;;30.40;;
58472;SDS011;44775;51.564;5.460;2022-11-20T11:47:21;71.35;;;32.00;;
58472;SDS011;44775;51.564;5.460;2022-11-20T11:49:47;62.70;;;30.40;;
58472;SDS011;44775;51.564;5.460;2022-11-20T11:52:15;65.20;;;31.08;;
58472;SDS011;44775;51.564;5.460;2022-11-20T11:54:55;47.58;;;20.00;;
58472;SDS011;44775;51.564;5.460;2022-11-20T12:00:08;70.43;;;32.83;;
58472;SDS011;44775;51.564;5.460;2022-11-20T12:05:23;71.65;;;32.80;;
58472;SDS011;44775;51.564;5.460;2022-11-20T12:10:40;68.40;;;30.60;;
58472;SDS011;44775;51.564;5.460;2022-11-20T12:15:39;71.85;;;32.38;;
58472;SDS011;44775;51.564;5.460;2022-11-20T12:18:12;78.13;;;32.65;;
58472;SDS011;44775;51.564;5.460;2022-11-20T12:20:41;72.13;;;33.85;;
58472;SDS011;44775;51.564;5.460;2022-11-20T12:23:18;73.45;;;33.83;;
58472;SDS011;44775;51.564;5.460;2022-11-20T12:25:53;75.32;;;34.40;;
58472;SDS011;44775;51.564;5.460;2022-11-20T12:31:31;70.53;;;33.00;;
58472;SDS011;44775;51.564;5.460;2022-11-20T12:53:51;69.68;;;33.03;;
58472;SDS011;44775;51.564;5.460;2022-11-20T13:02:01;68.45;;;32.38;;
58472;SDS011;44775;51.564;5.460;2022-11-20T13:07:42;72.50;;;32.20;;
58472;SDS011;44775;51.564;5.460;2022-11-20T13:13:01;68.75;;;31.30;;
58472;SDS011;44775;51.564;5.460;2022-11-20T13:18:10;64.32;;;27.63;;
58472;SDS011;44775;51.564;5.460;2022-11-20T13:20:41;64.90;;;31.38;;
58472;SDS011;44775;51.564;5.460;2022-11-20T13:23:08;68.55;;;31.25;;
58472;SDS011;44775;51.564;5.460;2022-11-20T13:25:35;66.55;;;30.75;;
58472;SDS011;44775;51.564;5.460;2022-11-20T13:28:05;66.20;;;30.23;;
58472;SDS011;44775;51.564;5.460;2022-11-20T13:30:55;67.07;;;30.48;;
58472;SDS011;44775;51.564;5.460;2022-11-20T13:36:07;70.00;;;31.65;;
58472;SDS011;44775;51.564;5.460;2022-11-20T13:38:48;68.78;;;30.45;;
58472;SDS011;44775;51.564;5.460;2022-11-20T13:41:31;65.72;;;30.23;;
58472;SDS011;44775;51.564;5.460;2022-11-20T13:46:40;62.50;;;30.05;;
58472;SDS011;44775;51.564;5.460;2022-11-20T13:49:10;64.60;;;29.25;;
58472;SDS011;44775;51.564;5.460;2022-11-20T14:02:40;64.07;;;29.15;;
58472;SDS011;44775;51.564;5.460;2022-11-20T14:05:13;61.22;;;29.75;;
58472;SDS011;44775;51.564;5.460;2022-11-20T14:10:22;65.10;;;29.30;;
58472;SDS011;44775;51.564;5.460;2022-11-20T14:12:49;62.58;;;29.77;;
58472;SDS011;44775;51.564;5.460;2022-11-20T14:15:29;74.65;;;30.35;;
58472;SDS011;44775;51.564;5.460;2022-11-20T14:17:59;59.85;;;28.15;;
58472;SDS011;44775;51.564;5.460;2022-11-20T14:20:26;61.03;;;29.77;;
58472;SDS011;44775;51.564;5.460;2022-11-20T14:22:54;60.95;;;29.45;;
58472;SDS011;44775;51.564;5.460;2022-11-20T14:25:21;62.13;;;28.85;;
58472;SDS011;44775;51.564;5.460;2022-11-20T14:27:57;56.60;;;26.85;;
58472;SDS011;44775;51.564;5.460;2022-11-20T14:30:25;67.60;;;30.88;;
58472;SDS011;44775;51.564;5.460;2022-11-20T14:32:55;66.63;;;30.95;;
58472;SDS011;44775;51.564;5.460;2022-11-20T14:35:27;67.03;;;31.48;;
58472;SDS011;44775;51.564;5.460;2022-11-20T14:37:54;70.28;;;29.58;;
58472;SDS011;44775;51.564;5.460;2022-11-20T14:40:22;71.00;;;31.92;;
58472;SDS011;44775;51.564;5.460;2022-11-20T14:42:48;64.32;;;30.00;;
58472;SDS011;44775;51.564;5.460;2022-11-20T14:45:14;65.60;;;30.85;;
58472;SDS011;44775;51.564;5.460;2022-11-20T14:47:41;66.03;;;31.08;;
58472;SDS011;44775;51.564;5.460;2022-11-20T14:50:28;65.63;;;30.95;;
58472;SDS011;44775;51.564;5.460;2022-11-20T14:52:54;70.32;;;29.95;;
58472;SDS011;44775;51.564;5.460;2022-11-20T14:55:25;78.25;;;32.35;;
58472;SDS011;44775;51.564;5.460;2022-11-20T14:57:55;71.32;;;31.33;;
58472;SDS011;44775;51.564;5.460;2022-11-20T15:00:22;73.15;;;31.73;;
58472;SDS011;44775;51.564;5.460;2022-11-20T15:02:48;79.15;;;33.88;;
58472;SDS011;44775;51.564;5.460;2022-11-20T15:05:16;74.88;;;32.42;;
58472;SDS011;44775;51.564;5.460;2022-11-20T15:07:47;73.38;;;31.23;;
58472;SDS011;44775;51.564;5.460;2022-11-20T15:10:22;73.90;;;32.72;;
58472;SDS011;44775;51.564;5.460;2022-11-20T15:12:50;74.90;;;31.55;;
58472;SDS011;44775;51.564;5.460;2022-11-20T15:15:21;74.00;;;31.23;;
58472;SDS011;44775;51.564;5.460;2022-11-20T15:17:55;78.25;;;32.45;;
58472;SDS011;44775;51.564;5.460;2022-11-20T15:20:21;69.18;;;30.20;;
58472;SDS011;44775;51.564;5.460;2022-11-20T15:22:51;70.68;;;30.75;;
58472;SDS011;44775;51.564;5.460;2022-11-20T15:25:17;70.57;;;29.50;;
58472;SDS011;44775;51.564;5.460;2022-11-20T15:27:43;69.68;;;30.70;;
58472;SDS011;44775;51.564;5.460;2022-11-20T15:30:14;73.57;;;30.55;;
58472;SDS011;44775;51.564;5.460;2022-11-20T15:32:41;72.28;;;30.73;;
58472;SDS011;44775;51.564;5.460;2022-11-20T15:35:07;65.03;;;28.52;;
58472;SDS011;44775;51.564;5.460;2022-11-20T15:37:34;68.93;;;29.40;;
58472;SDS011;44775;51.564;5.460;2022-11-20T15:40:00;76.68;;;32.83;;
58472;SDS011;44775;51.564;5.460;2022-11-20T15:42:26;77.50;;;32.00;;
58472;SDS011;44775;51.564;5.460;2022-11-20T15:44:51;76.50;;;32.55;;
58472;SDS011;44775;51.564;5.460;2022-11-20T15:47:17;71.63;;;29.60;;
58472;SDS011;44775;51.564;5.460;2022-11-20T15:49:43;65.68;;;30.58;;
58472;SDS011;44775;51.564;5.460;2022-11-20T15:52:09;72.97;;;30.40;;
58472;SDS011;44775;51.564;5.460;2022-11-20T15:54:35;66.18;;;28.33;;
58472;SDS011;44775;51.564;5.460;2022-11-20T15:57:00;67.80;;;30.00;;
58472;SDS011;44775;51.564;5.460;2022-11-20T15:59:27;66.03;;;29.17;;
58472;SDS011;44775;51.564;5.460;2022-11-20T16:01:53;72.93;;;31.08;;
58472;SDS011;44775;51.564;5.460;2022-11-20T16:04:18;74.35;;;31.88;;
58472;SDS011;44775;51.564;5.460;2022-11-20T16:06:44;67.38;;;28.65;;
58472;SDS011;44775;51.564;5.460;2022-11-20T16:09:09;75.50;;;30.05;;